Time;durP1;ratioP1;P1;durP2;ratioP2;P2;SDS_P1;SDS_P2;PMS_P1;PMS_P2;Temp;Humidity;BMP_temperature;BMP_pressure;BME280_temperature;BME280_humidity;BME280_pressure;Samples;Min_cycle;Max_cycle;Signal;HPM_P1;HPM_P2
2022/10/04 00:00:58;;;;;;;13.83;11.60;;;;;;;;;;5032291;28;20465;-75
2022/10/04 00:03:28;;;;;;;12.87;11.33;;;;;;;;;;5029454;28;20447;-76
2022/10/04 00:05:57;;;;;;;12.83;10.47;;;;;;;;;;5041087;28;20453;-75
2022/10/04 00:08:27;;;;;;;12.97;11.20;;;;;;;;;;5050068;28;20981;-76
2022/10/04 00:11:02;;;;;;;12.10;11.00;;;;;;;;;;5039550;28;20537;-76
2022/10/04 00:13:31;;;;;;;13.03;11.57;;;;;;;;;;5049713;28;20475;-76
2022/10/04 00:15:58;;;;;;;12.20;10.90;;;;;;;;;;5050280;28;20611;-75
2022/10/04 00:18:29;;;;;;;13.00;11.70;;;;;;;;;;5050901;28;20496;-76
2022/10/04 00:20:58;;;;;;;12.73;11.43;;;;;;;;;;5051348;28;20466;-75
2022/10/04 00:23:27;;;;;;;14.80;11.70;;;;;;;;;;5051019;28;20453;-75
2022/10/04 00:25:55;;;;;;;12.50;11.20;;;;;;;;;;5048906;28;20481;-75
2022/10/04 00:28:42;;;;;;;13.13;11.80;;;;;;;;;;5043105;28;20460;-74
2022/10/04 00:31:11;;;;;;;14.23;11.47;;;;;;;;;;5043814;28;20497;-76
2022/10/04 00:33:39;;;;;;;21.07;12.80;;;;;;;;;;5033001;28;20817;-75
2022/10/04 00:36:24;;;;;;;13.00;11.67;;;;;;;;;;5030149;28;20571;-75
2022/10/04 00:39:03;;;;;;;13.03;11.70;;;;;;;;;;5031036;28;20493;-75
2022/10/04 00:41:34;;;;;;;12.43;11.13;;;;;;;;;;5030761;28;20446;-76
2022/10/04 00:44:04;;;;;;;15.27;12.13;;;;;;;;;;5029674;28;20504;-75
2022/10/04 00:46:32;;;;;;;12.80;11.50;;;;;;;;;;5029676;28;20514;-75
2022/10/04 00:49:00;;;;;;;14.33;12.27;;;;;;;;;;5029594;28;20446;-76
2022/10/04 00:51:29;;;;;;;13.87;12.20;;;;;;;;;;5030680;28;20796;-76
2022/10/04 00:54:02;;;;;;;14.43;11.47;;;;;;;;;;5030652;28;20447;-74
2022/10/04 00:56:33;;;;;;;17.63;12.57;;;;;;;;;;5030550;28;20452;-76
2022/10/04 00:59:09;;;;;;;14.33;12.30;;;;;;;;;;5031168;28;21075;-74
2022/10/04 01:01:37;;;;;;;14.37;12.50;;;;;;;;;;5050326;28;20514;-76
2022/10/04 01:04:07;;;;;;;13.80;12.40;;;;;;;;;;5041588;28;20499;-75
2022/10/04 01:06:35;;;;;;;14.80;12.77;;;;;;;;;;5049909;28;20438;-76
2022/10/04 01:09:04;;;;;;;12.90;11.17;;;;;;;;;;5049828;28;20445;-75
2022/10/04 01:11:35;;;;;;;14.50;12.90;;;;;;;;;;5049667;28;20502;-76
2022/10/04 01:14:05;;;;;;;19.07;13.27;;;;;;;;;;5048938;28;20445;-75
2022/10/04 01:16:35;;;;;;;13.47;11.80;;;;;;;;;;5050308;28;20449;-76
2022/10/04 01:19:20;;;;;;;13.40;12.00;;;;;;;;;;5049556;28;20481;-75
2022/10/04 01:21:47;;;;;;;13.43;11.60;;;;;;;;;;5049484;28;20506;-75
2022/10/04 01:24:23;;;;;;;14.60;12.73;;;;;;;;;;5049079;28;20463;-77
2022/10/04 01:26:50;;;;;;;14.07;12.70;;;;;;;;;;5050026;28;20453;-75
2022/10/04 01:29:18;;;;;;;14.27;12.87;;;;;;;;;;5049642;28;20460;-76
2022/10/04 01:31:46;;;;;;;15.40;13.20;;;;;;;;;;5049587;28;20937;-76
2022/10/04 01:34:14;;;;;;;17.37;12.73;;;;;;;;;;5048970;28;20441;-75
2022/10/04 01:36:41;;;;;;;13.37;12.07;;;;;;;;;;5049789;28;20444;-75
2022/10/04 01:39:09;;;;;;;17.20;11.80;;;;;;;;;;5050217;28;20481;-76
2022/10/04 01:41:45;;;;;;;13.77;12.33;;;;;;;;;;5052755;28;21071;-76
2022/10/04 01:44:16;;;;;;;17.83;12.17;;;;;;;;;;5054406;28;20441;-76
2022/10/04 01:46:44;;;;;;;15.90;12.70;;;;;;;;;;5056994;28;20430;-76
2022/10/04 01:49:13;;;;;;;13.73;12.33;;;;;;;;;;5055900;28;20469;-74
2022/10/04 01:51:45;;;;;;;14.10;12.10;;;;;;;;;;5059354;28;20448;-76
2022/10/04 01:54:14;;;;;;;13.20;11.90;;;;;;;;;;5057013;28;20459;-74
2022/10/04 01:56:45;;;;;;;13.57;12.17;;;;;;;;;;5057916;28;20439;-75
2022/10/04 01:59:16;;;;;;;14.70;12.07;;;;;;;;;;5055429;28;20901;-75
2022/10/04 02:01:47;;;;;;;13.30;11.90;;;;;;;;;;5054305;28;20448;-75
2022/10/04 02:04:16;;;;;;;16.90;12.20;;;;;;;;;;5048377;28;20506;-75
2022/10/04 02:06:44;;;;;;;15.37;12.77;;;;;;;;;;5042058;28;21072;-75
2022/10/04 02:09:13;;;;;;;15.60;13.23;;;;;;;;;;5033867;28;20485;-75
2022/10/04 02:11:41;;;;;;;13.17;11.87;;;;;;;;;;5041601;28;20435;-75
2022/10/04 02:14:14;;;;;;;14.03;12.53;;;;;;;;;;5052520;28;20453;-75
2022/10/04 02:16:43;;;;;;;15.40;13.63;;;;;;;;;;5053002;28;20789;-75
2022/10/04 02:19:11;;;;;;;13.87;12.50;;;;;;;;;;5052994;28;20496;-75
2022/10/04 02:21:38;;;;;;;14.13;11.70;;;;;;;;;;5052837;28;20814;-76
2022/10/04 02:24:07;;;;;;;12.90;11.70;;;;;;;;;;5052148;28;20451;-75
2022/10/04 02:26:34;;;;;;;13.30;11.70;;;;;;;;;;5052776;28;20456;-74
2022/10/04 02:29:02;;;;;;;15.07;13.47;;;;;;;;;;5052825;28;20444;-75
2022/10/04 02:34:18;;;;;;;14.77;12.57;;;;;;;;;;5060597;28;20427;-75
2022/10/04 02:36:46;;;;;;;15.77;13.20;;;;;;;;;;5059938;28;21035;-74
2022/10/04 02:39:15;;;;;;;14.27;12.87;;;;;;;;;;5060105;28;20489;-75
2022/10/04 02:41:44;;;;;;;14.33;12.87;;;;;;;;;;5059111;28;20433;-75
2022/10/04 02:44:15;;;;;;;13.83;12.30;;;;;;;;;;5057558;28;20459;-74
2022/10/04 02:46:50;;;;;;;13.30;11.60;;;;;;;;;;5055818;28;20446;-75
2022/10/04 02:49:20;;;;;;;14.43;12.60;;;;;;;;;;5052558;28;20465;-75
2022/10/04 02:51:50;;;;;;;15.40;13.43;;;;;;;;;;5052186;28;20968;-75
2022/10/04 02:54:28;;;;;;;14.73;13.20;;;;;;;;;;5051799;28;20443;-76
2022/10/04 02:56:56;;;;;;;15.40;12.70;;;;;;;;;;5052116;28;20463;-76
2022/10/04 02:59:24;;;;;;;13.43;12.10;;;;;;;;;;5052049;28;20574;-76
2022/10/04 03:01:53;;;;;;;13.77;12.30;;;;;;;;;;5052315;28;20438;-74
2022/10/04 03:04:22;;;;;;;16.10;12.07;;;;;;;;;;5051833;28;20446;-76
2022/10/04 03:06:50;;;;;;;18.47;13.57;;;;;;;;;;5051958;28;20447;-76
2022/10/04 03:09:17;;;;;;;16.20;13.40;;;;;;;;;;5051577;28;20471;-75
2022/10/04 03:11:45;;;;;;;16.23;12.90;;;;;;;;;;5051402;28;20434;-75
2022/10/04 03:14:14;;;;;;;15.93;12.90;;;;;;;;;;5051071;28;20431;-75
2022/10/04 03:16:43;;;;;;;13.73;12.30;;;;;;;;;;5052230;28;20445;-76
2022/10/04 03:19:11;;;;;;;13.57;12.17;;;;;;;;;;5061400;28;20488;-74
2022/10/04 03:21:40;;;;;;;13.93;12.53;;;;;;;;;;5062463;28;20443;-75
2022/10/04 03:24:07;;;;;;;14.13;12.63;;;;;;;;;;5061447;28;20453;-76
2022/10/04 03:26:37;;;;;;;14.90;11.40;;;;;;;;;;5061759;28;20453;-76
2022/10/04 03:29:09;;;;;;;13.60;12.20;;;;;;;;;;5063524;28;20521;-75
2022/10/04 03:31:38;;;;;;;12.67;11.47;;;;;;;;;;5058880;28;20426;-76
2022/10/04 03:34:05;;;;;;;14.67;12.40;;;;;;;;;;5051779;28;20443;-75
2022/10/04 03:36:35;;;;;;;21.93;13.83;;;;;;;;;;5052419;28;20446;-75
2022/10/04 03:39:08;;;;;;;13.60;12.30;;;;;;;;;;5052407;28;20482;-76
2022/10/04 03:41:38;;;;;;;14.27;11.73;;;;;;;;;;5051746;28;20946;-75
2022/10/04 03:44:07;;;;;;;14.23;12.20;;;;;;;;;;5051678;28;20802;-76
2022/10/04 03:46:35;;;;;;;13.57;12.07;;;;;;;;;;5052178;28;20465;-75
2022/10/04 03:49:02;;;;;;;14.67;12.27;;;;;;;;;;5051556;28;20442;-75
2022/10/04 03:51:29;;;;;;;14.67;12.03;;;;;;;;;;5052345;28;20449;-75
2022/10/04 03:53:59;;;;;;;13.10;11.70;;;;;;;;;;5051826;28;20449;-76
2022/10/04 03:56:27;;;;;;;11.83;10.63;;;;;;;;;;5060980;28;20445;-75
2022/10/04 03:58:55;;;;;;;18.67;12.47;;;;;;;;;;5065478;28;20477;-75
2022/10/04 04:01:33;;;;;;;16.07;12.53;;;;;;;;;;5061534;28;20445;-75
2022/10/04 04:04:02;;;;;;;12.60;11.30;;;;;;;;;;5060834;28;20941;-75
2022/10/04 04:06:33;;;;;;;12.37;11.10;;;;;;;;;;5057104;28;20454;-75
2022/10/04 04:09:02;;;;;;;12.97;11.77;;;;;;;;;;5050687;28;20525;-76
2022/10/04 04:11:29;;;;;;;13.00;11.70;;;;;;;;;;5050676;28;20862;-75
2022/10/04 04:14:01;;;;;;;12.77;11.47;;;;;;;;;;5049908;28;20458;-75
2022/10/04 04:16:29;;;;;;;14.20;12.80;;;;;;;;;;5051327;28;20453;-75
2022/10/04 04:18:58;;;;;;;13.50;12.10;;;;;;;;;;5050773;28;20482;-75
2022/10/04 04:21:26;;;;;;;13.43;12.13;;;;;;;;;;5050823;28;20447;-75
2022/10/04 04:23:55;;;;;;;12.50;10.90;;;;;;;;;;5042044;28;20898;-76
2022/10/04 04:26:27;;;;;;;12.57;11.27;;;;;;;;;;5036499;28;20463;-75
2022/10/04 04:28:57;;;;;;;14.53;12.90;;;;;;;;;;5031078;28;20508;-75
2022/10/04 04:31:25;;;;;;;16.90;11.83;;;;;;;;;;5030837;28;20446;-76
2022/10/04 04:33:58;;;;;;;15.37;12.63;;;;;;;;;;5030012;28;20444;-75
2022/10/04 04:36:25;;;;;;;18.20;13.27;;;;;;;;;;5031125;28;21268;-75
2022/10/04 04:41:35;;;;;;;12.33;11.03;;;;;;;;;;5022121;28;20795;-75
2022/10/04 04:44:02;;;;;;;12.70;11.40;;;;;;;;;;5029806;28;20516;-74
2022/10/04 04:46:29;;;;;;;13.17;11.70;;;;;;;;;;5030315;28;20476;-75
2022/10/04 04:49:00;;;;;;;15.33;11.70;;;;;;;;;;5030176;28;20439;-75
2022/10/04 04:51:27;;;;;;;13.50;12.10;;;;;;;;;;5043383;28;20442;-76
2022/10/04 04:53:55;;;;;;;13.57;12.03;;;;;;;;;;5049092;28;20796;-75
2022/10/04 04:56:24;;;;;;;13.70;12.20;;;;;;;;;;5035602;28;20447;-76
2022/10/04 04:58:53;;;;;;;13.23;11.43;;;;;;;;;;5030093;28;20475;-75
2022/10/04 05:01:23;;;;;;;14.07;12.20;;;;;;;;;;5030265;28;20446;-75
2022/10/04 05:04:01;;;;;;;13.30;11.90;;;;;;;;;;5029447;28;20451;-76
2022/10/04 05:06:29;;;;;;;12.27;10.93;;;;;;;;;;5029973;28;20445;-76
2022/10/04 05:08:56;;;;;;;14.73;12.23;;;;;;;;;;5029581;28;20529;-75
2022/10/04 05:11:26;;;;;;;18.60;13.77;;;;;;;;;;5034012;28;20453;-75
2022/10/04 05:13:56;;;;;;;14.37;12.10;;;;;;;;;;5049237;28;20532;-76
2022/10/04 05:16:26;;;;;;;13.67;11.53;;;;;;;;;;5049687;28;20441;-75
2022/10/04 05:18:57;;;;;;;15.73;11.90;;;;;;;;;;5049924;28;20504;-75
2022/10/04 05:21:26;;;;;;;12.50;11.40;;;;;;;;;;5053727;28;20441;-75
2022/10/04 05:23:56;;;;;;;12.63;11.33;;;;;;;;;;5053379;28;20469;-75
2022/10/04 05:26:26;;;;;;;12.60;11.33;;;;;;;;;;5054094;28;20419;-76
2022/10/04 05:28:55;;;;;;;14.80;11.53;;;;;;;;;;5053733;28;20441;-76
2022/10/04 05:31:35;;;;;;;15.10;12.10;;;;;;;;;;5053478;28;20433;-76
2022/10/04 05:34:06;;;;;;;13.43;12.23;;;;;;;;;;5053230;28;20422;-75
2022/10/04 05:36:51;;;;;;;18.10;13.50;;;;;;;;;;5053809;28;20452;-75
2022/10/04 05:39:23;;;;;;;12.70;11.40;;;;;;;;;;5053722;28;20488;-76
2022/10/04 05:41:55;;;;;;;13.90;12.00;;;;;;;;;;5053695;28;20449;-75
2022/10/04 05:44:26;;;;;;;13.17;11.93;;;;;;;;;;5053352;28;21002;-75
2022/10/04 05:46:55;;;;;;;14.27;12.80;;;;;;;;;;5053914;28;20450;-75
2022/10/04 05:49:23;;;;;;;13.77;11.97;;;;;;;;;;5053431;28;20988;-74
2022/10/04 05:51:53;;;;;;;13.47;12.10;;;;;;;;;;5053331;28;20485;-76
2022/10/04 05:54:22;;;;;;;12.23;11.03;;;;;;;;;;5053093;28;20962;-76
2022/10/04 05:57:04;;;;;;;13.00;11.87;;;;;;;;;;5053258;28;20461;-75
2022/10/04 05:59:40;;;;;;;13.53;12.20;;;;;;;;;;5053634;28;20490;-75
2022/10/04 06:02:13;;;;;;;12.97;11.67;;;;;;;;;;5053104;28;20938;-76
2022/10/04 06:04:58;;;;;;;20.03;11.53;;;;;;;;;;5052701;28;20515;-76
2022/10/04 06:07:29;;;;;;;12.53;10.90;;;;;;;;;;5052918;28;20461;-76
2022/10/04 06:09:58;;;;;;;19.00;11.00;;;;;;;;;;5052813;28;20985;-77
2022/10/04 06:12:32;;;;;;;12.13;11.07;;;;;;;;;;5052642;28;20439;-76
2022/10/04 06:15:08;;;;;;;11.93;10.80;;;;;;;;;;5052975;28;20533;-75
2022/10/04 06:17:44;;;;;;;11.83;10.83;;;;;;;;;;5052593;28;20446;-77
2022/10/04 06:20:44;;;;;;;13.23;10.83;;;;;;;;;;5052523;28;21281;-77
2022/10/04 06:23:13;;;;;;;12.17;10.87;;;;;;;;;;5009867;28;20550;-75
2022/10/04 06:25:43;;;;;;;14.70;12.37;;;;;;;;;;5010444;28;20441;-76
2022/10/04 06:28:16;;;;;;;13.00;11.80;;;;;;;;;;5030591;28;20453;-75
2022/10/04 06:30:52;;;;;;;11.93;10.87;;;;;;;;;;5052075;28;20453;-76
2022/10/04 06:33:36;;;;;;;13.57;12.23;;;;;;;;;;5052344;28;20433;-76
2022/10/04 06:36:16;;;;;;;12.70;11.47;;;;;;;;;;5052571;28;20799;-75
2022/10/04 06:39:00;;;;;;;13.57;11.93;;;;;;;;;;5052642;28;20930;-76
2022/10/04 06:41:42;;;;;;;13.23;11.83;;;;;;;;;;5052903;28;20421;-76
2022/10/04 06:44:32;;;;;;;15.13;12.70;;;;;;;;;;5051738;28;20860;-76
2022/10/04 06:47:10;;;;;;;13.87;11.80;;;;;;;;;;5052927;28;20486;-76
2022/10/04 06:49:43;;;;;;;16.30;11.60;;;;;;;;;;5052713;28;20462;-76
2022/10/04 06:52:25;;;;;;;14.30;12.97;;;;;;;;;;5052127;28;20477;-75
2022/10/04 06:55:04;;;;;;;16.13;13.03;;;;;;;;;;5048241;28;20448;-76
2022/10/04 06:57:44;;;;;;;14.40;13.00;;;;;;;;;;5032231;28;20814;-76
2022/10/04 07:00:14;;;;;;;12.83;11.53;;;;;;;;;;5032426;28;20486;-74
2022/10/04 07:02:44;;;;;;;14.90;13.07;;;;;;;;;;5031388;28;20447;-75
2022/10/04 07:05:18;;;;;;;17.63;12.53;;;;;;;;;;5032307;28;20946;-75
2022/10/04 07:07:47;;;;;;;14.57;12.30;;;;;;;;;;5032395;28;20983;-75
2022/10/04 07:10:31;;;;;;;15.00;13.40;;;;;;;;;;5032201;28;21077;-76
2022/10/04 07:13:16;;;;;;;15.83;12.83;;;;;;;;;;5031656;28;20438;-76
2022/10/04 07:15:46;;;;;;;15.30;11.33;;;;;;;;;;5032403;28;20448;-76
2022/10/04 07:18:16;;;;;;;13.57;11.60;;;;;;;;;;5036597;28;20434;-77
2022/10/04 07:20:43;;;;;;;12.47;11.27;;;;;;;;;;5051572;28;20477;-77
2022/10/04 07:23:14;;;;;;;14.50;11.47;;;;;;;;;;5052072;28;20457;-76
2022/10/04 07:25:44;;;;;;;12.93;11.60;;;;;;;;;;5055085;28;20456;-76
2022/10/04 07:31:00;;;;;;;13.57;12.17;;;;;;;;;;5058833;28;20503;-75
2022/10/04 07:33:30;;;;;;;15.10;12.53;;;;;;;;;;5059246;28;20444;-77
2022/10/04 07:36:03;;;;;;;15.03;10.93;;;;;;;;;;5061065;28;20460;-75
2022/10/04 07:38:32;;;;;;;13.10;11.23;;;;;;;;;;5062176;28;20447;-76
2022/10/04 07:41:06;;;;;;;17.70;12.17;;;;;;;;;;5060093;28;20595;-75
2022/10/04 07:43:34;;;;;;;13.70;12.40;;;;;;;;;;5058318;28;20567;-76
2022/10/04 07:46:03;;;;;;;13.10;11.70;;;;;;;;;;5057510;28;21043;-76
2022/10/04 07:48:32;;;;;;;14.40;12.13;;;;;;;;;;5052034;28;20448;-76
2022/10/04 07:51:02;;;;;;;16.77;12.07;;;;;;;;;;5051258;28;20464;-76
2022/10/04 07:53:32;;;;;;;14.37;11.90;;;;;;;;;;5050326;28;20463;-75
2022/10/04 07:56:02;;;;;;;13.03;11.73;;;;;;;;;;5050954;28;20436;-76
2022/10/04 07:58:34;;;;;;;14.53;11.60;;;;;;;;;;5055717;28;20441;-75
2022/10/04 08:01:03;;;;;;;11.30;10.20;;;;;;;;;;5056609;28;20484;-76
2022/10/04 08:03:43;;;;;;;13.13;11.20;;;;;;;;;;5055739;28;20990;-76
2022/10/04 08:06:13;;;;;;;12.00;10.23;;;;;;;;;;5051328;28;20441;-75
2022/10/04 08:08:49;;;;;;;11.20;10.10;;;;;;;;;;5050396;28;20460;-75
2022/10/04 08:11:18;;;;;;;10.63;9.57;;;;;;;;;;5035820;28;20453;-75
2022/10/04 08:13:55;;;;;;;10.63;9.63;;;;;;;;;;5049837;28;20971;-75
2022/10/04 08:16:33;;;;;;;10.97;9.87;;;;;;;;;;5050466;28;20949;-75
2022/10/04 08:19:19;;;;;;;9.97;8.97;;;;;;;;;;5050116;28;20452;-76
2022/10/04 08:21:52;;;;;;;10.57;9.57;;;;;;;;;;5041184;28;20477;-76
2022/10/04 08:24:21;;;;;;;11.90;9.93;;;;;;;;;;5034684;28;20501;-75
2022/10/04 08:26:54;;;;;;;11.63;9.43;;;;;;;;;;5041510;28;20445;-75
2022/10/04 08:29:41;;;;;;;10.97;9.87;;;;;;;;;;5044083;28;20986;-76
2022/10/04 08:32:15;;;;;;;9.73;8.73;;;;;;;;;;5046500;28;20921;-75
2022/10/04 08:34:54;;;;;;;10.40;9.50;;;;;;;;;;5040029;28;20447;-75
2022/10/04 08:37:28;;;;;;;9.93;8.93;;;;;;;;;;5050595;28;20491;-75
2022/10/04 08:40:02;;;;;;;9.10;8.30;;;;;;;;;;5050181;28;20485;-75
2022/10/04 08:42:50;;;;;;;11.17;9.10;;;;;;;;;;5049937;28;20937;-76
2022/10/04 08:45:37;;;;;;;12.73;8.90;;;;;;;;;;5050148;28;20949;-75
2022/10/04 08:48:23;;;;;;;10.37;8.87;;;;;;;;;;5050465;28;20448;-75
2022/10/04 08:51:07;;;;;;;10.10;9.20;;;;;;;;;;5050077;28;20464;-75
2022/10/04 08:53:43;;;;;;;9.43;8.30;;;;;;;;;;5049269;28;20939;-76
2022/10/04 08:56:14;;;;;;;9.43;8.60;;;;;;;;;;5045870;28;20462;-75
2022/10/04 08:58:53;;;;;;;10.33;9.30;;;;;;;;;;5042023;28;20465;-75
2022/10/04 09:01:32;;;;;;;12.67;8.70;;;;;;;;;;5050161;28;20478;-75
2022/10/04 09:04:14;;;;;;;8.63;7.70;;;;;;;;;;5049753;28;20878;-76
2022/10/04 09:06:49;;;;;;;8.67;7.87;;;;;;;;;;5050321;28;20929;-76
2022/10/04 09:09:35;;;;;;;9.70;8.53;;;;;;;;;;5049883;28;20499;-75
2022/10/04 09:12:11;;;;;;;8.47;7.63;;;;;;;;;;5049700;28;20544;-76
2022/10/04 09:14:56;;;;;;;8.70;7.03;;;;;;;;;;5049258;28;20496;-76
2022/10/04 09:17:24;;;;;;;9.23;7.57;;;;;;;;;;5049973;28;20437;-76
2022/10/04 09:19:55;;;;;;;8.27;7.47;;;;;;;;;;5049681;28;20461;-76
2022/10/04 09:22:32;;;;;;;10.40;7.37;;;;;;;;;;5049824;28;20481;-75
2022/10/04 09:25:10;;;;;;;9.07;7.47;;;;;;;;;;5049671;28;20482;-75
2022/10/04 09:27:51;;;;;;;10.00;8.07;;;;;;;;;;5050958;28;20434;-76
2022/10/04 09:30:21;;;;;;;7.97;7.27;;;;;;;;;;5050409;28;20469;-76
2022/10/04 09:33:02;;;;;;;7.40;6.80;;;;;;;;;;5049775;28;20505;-75
2022/10/04 09:35:50;;;;;;;8.53;7.20;;;;;;;;;;5050341;28;20441;-75
2022/10/04 09:38:39;;;;;;;8.27;6.47;;;;;;;;;;5047199;28;20457;-76
2022/10/04 09:41:25;;;;;;;8.20;6.60;;;;;;;;;;5050658;28;20992;-75
2022/10/04 09:44:20;;;;;;;7.47;6.30;;;;;;;;;;5049935;28;20514;-76
2022/10/04 09:46:54;;;;;;;6.27;5.67;;;;;;;;;;5050888;28;20430;-75
2022/10/04 09:49:34;;;;;;;8.40;6.07;;;;;;;;;;5049910;28;20462;-77
2022/10/04 09:52:10;;;;;;;7.80;5.50;;;;;;;;;;5049783;28;20481;-77
2022/10/04 09:55:04;;;;;;;7.77;6.40;;;;;;;;;;5049047;28;20449;-76
2022/10/04 09:57:42;;;;;;;6.53;5.97;;;;;;;;;;5049547;28;20532;-76
2022/10/04 10:00:17;;;;;;;8.80;5.73;;;;;;;;;;5049200;28;20992;-74
2022/10/04 10:03:07;;;;;;;6.30;5.73;;;;;;;;;;5049178;28;20436;-75
2022/10/04 10:05:44;;;;;;;9.63;5.37;;;;;;;;;;5051112;28;20426;-76
2022/10/04 10:08:15;;;;;;;7.50;5.20;;;;;;;;;;5053160;28;20547;-75
2022/10/04 10:13:49;;;;;;;5.70;4.87;;;;;;;;;;5052791;28;20465;-76
2022/10/04 10:16:28;;;;;;;6.37;5.77;;;;;;;;;;5053268;28;20443;-75
2022/10/04 10:19:01;;;;;;;7.17;5.00;;;;;;;;;;5052773;28;20528;-75
2022/10/04 10:21:42;;;;;;;5.47;4.90;;;;;;;;;;5053214;28;20465;-75
2022/10/04 10:24:39;;;;;;;7.87;5.30;;;;;;;;;;5058737;28;20429;-75
2022/10/04 10:27:23;;;;;;;7.33;5.10;;;;;;;;;;5018621;28;20535;-75
2022/10/04 10:30:03;;;;;;;6.20;4.83;;;;;;;;;;5058140;28;20485;-76
2022/10/04 10:32:47;;;;;;;4.33;3.87;;;;;;;;;;5061312;28;20763;-75
2022/10/04 10:35:24;;;;;;;4.77;4.27;;;;;;;;;;5055237;28;20418;-74
2022/10/04 10:38:00;;;;;;;5.50;4.60;;;;;;;;;;5052944;28;20476;-77
2022/10/04 10:40:36;;;;;;;8.20;4.80;;;;;;;;;;5052725;28;20488;-76
2022/10/04 10:43:17;;;;;;;6.00;4.10;;;;;;;;;;5052275;28;20426;-76
2022/10/04 10:45:52;;;;;;;5.83;4.63;;;;;;;;;;5052450;28;20481;-76
2022/10/04 10:48:29;;;;;;;6.80;4.77;;;;;;;;;;5052317;28;20821;-75
2022/10/04 10:51:02;;;;;;;5.57;4.50;;;;;;;;;;5048977;28;20465;-76
2022/10/04 10:53:50;;;;;;;5.03;4.63;;;;;;;;;;5046945;28;20430;-77
2022/10/04 10:56:27;;;;;;;5.57;4.93;;;;;;;;;;5029988;28;20450;-77
2022/10/04 10:59:05;;;;;;;6.87;4.30;;;;;;;;;;5031918;28;20801;-76
2022/10/04 11:01:52;;;;;;;5.77;4.00;;;;;;;;;;5032338;28;20463;-76
2022/10/04 11:04:31;;;;;;;6.83;4.47;;;;;;;;;;5037323;28;20437;-76
2022/10/04 11:07:12;;;;;;;5.47;4.97;;;;;;;;;;5050732;28;20445;-77
2022/10/04 11:09:54;;;;;;;4.90;4.50;;;;;;;;;;5051414;28;20473;-77
2022/10/04 11:12:27;;;;;;;5.63;4.00;;;;;;;;;;5042451;28;20464;-77
2022/10/04 11:15:25;;;;;;;4.63;3.87;;;;;;;;;;5050025;28;20429;-77
2022/10/04 11:18:13;;;;;;;7.13;4.47;;;;;;;;;;5051774;28;20460;-77
2022/10/04 11:20:59;;;;;;;4.57;4.07;;;;;;;;;;5052464;28;20995;-77
2022/10/04 11:23:44;;;;;;;6.90;4.20;;;;;;;;;;5053265;28;20448;-78
2022/10/04 11:26:39;;;;;;;6.20;4.30;;;;;;;;;;5054413;28;20448;-78
2022/10/04 11:29:10;;;;;;;4.23;3.83;;;;;;;;;;5051330;28;20437;-75
2022/10/04 11:31:58;;;;;;;5.53;3.57;;;;;;;;;;5054077;28;20441;-76
2022/10/04 11:34:38;;;;;;;4.90;4.00;;;;;;;;;;5048920;28;20917;-78
2022/10/04 11:37:11;;;;;;;5.43;4.20;;;;;;;;;;5052971;28;20937;-76
2022/10/04 11:39:49;;;;;;;4.50;4.10;;;;;;;;;;5053034;28;20514;-77
2022/10/04 11:42:25;;;;;;;5.90;3.93;;;;;;;;;;5052419;28;20488;-78
2022/10/04 11:45:01;;;;;;;5.63;4.60;;;;;;;;;;5050999;28;20944;-77
2022/10/04 11:47:46;;;;;;;4.53;3.90;;;;;;;;;;5051638;28;20433;-76
2022/10/04 11:50:24;;;;;;;5.50;3.90;;;;;;;;;;5051379;28;20465;-76
2022/10/04 11:53:04;;;;;;;6.90;3.97;;;;;;;;;;5041166;28;20587;-77
2022/10/04 11:55:39;;;;;;;5.67;3.90;;;;;;;;;;5038029;28;20517;-75
2022/10/04 11:58:14;;;;;;;6.10;5.50;;;;;;;;;;5043644;28;20448;-76
2022/10/04 12:00:59;;;;;;;21.40;19.73;;;;;;;;;;5050944;28;20472;-78
2022/10/04 12:03:36;;;;;;;8.63;6.50;;;;;;;;;;5049992;28;20442;-76
2022/10/04 12:06:07;;;;;;;7.73;5.10;;;;;;;;;;5050765;28;20445;-76
2022/10/04 12:08:41;;;;;;;8.90;5.97;;;;;;;;;;5049940;28;20464;-76
2022/10/04 12:12:35;;;;;;;4.60;3.90;;;;;;;;;;5050489;28;20465;-76
2022/10/04 12:14:23;;;;;;;4.17;3.80;;;;;;;;;;5049713;28;20438;-75
2022/10/04 12:17:12;;;;;;;3.80;3.47;;;;;;;;;;5050691;28;20829;-75
2022/10/04 12:19:51;;;;;;;3.40;3.10;;;;;;;;;;5047487;28;20469;-76
2022/10/04 12:22:42;;;;;;;7.10;3.70;;;;;;;;;;5050730;28;20478;-75
2022/10/04 12:25:29;;;;;;;3.90;3.50;;;;;;;;;;5050775;28;20442;-76
2022/10/04 12:28:14;;;;;;;5.20;4.70;;;;;;;;;;5050240;28;20936;-77
2022/10/04 12:30:51;;;;;;;5.03;3.47;;;;;;;;;;5050997;28;20469;-76
2022/10/04 12:33:22;;;;;;;3.23;3.03;;;;;;;;;;5050557;28;20441;-76
2022/10/04 12:35:57;;;;;;;3.83;3.10;;;;;;;;;;5051493;28;20556;-75
2022/10/04 12:38:35;;;;;;;4.20;3.20;;;;;;;;;;5059790;28;20430;-76
2022/10/04 12:41:10;;;;;;;4.77;3.27;;;;;;;;;;5058338;28;20461;-79
2022/10/04 12:43:42;;;;;;;3.43;3.10;;;;;;;;;;5050470;28;20528;-76
2022/10/04 12:46:17;;;;;;;4.73;3.37;;;;;;;;;;5050517;28;20449;-75
2022/10/04 12:48:54;;;;;;;3.50;3.20;;;;;;;;;;5050265;28;20488;-76
2022/10/04 12:51:36;;;;;;;3.43;3.10;;;;;;;;;;5050010;28;20960;-77
2022/10/04 12:54:12;;;;;;;5.90;3.33;;;;;;;;;;5048280;28;20460;-75
2022/10/04 12:56:45;;;;;;;6.33;3.70;;;;;;;;;;5049593;28;20437;-76
2022/10/04 12:59:34;;;;;;;4.67;3.33;;;;;;;;;;5050266;28;20457;-76
2022/10/04 13:02:06;;;;;;;5.33;4.30;;;;;;;;;;5049867;28;21000;-76
2022/10/04 13:04:37;;;;;;;4.53;3.40;;;;;;;;;;5049552;28;20936;-77
2022/10/04 13:07:18;;;;;;;4.93;3.53;;;;;;;;;;5050050;28;20449;-75
2022/10/04 13:09:49;;;;;;;3.80;3.50;;;;;;;;;;5050390;28;20515;-76
2022/10/04 13:12:23;;;;;;;3.37;2.87;;;;;;;;;;5038030;28;20438;-75
2022/10/04 13:14:58;;;;;;;4.10;3.47;;;;;;;;;;5029549;28;20439;-77
2022/10/04 13:17:33;;;;;;;3.83;3.60;;;;;;;;;;5030067;28;20920;-75
2022/10/04 13:20:13;;;;;;;3.67;2.70;;;;;;;;;;5030132;28;20462;-76
2022/10/04 13:22:47;;;;;;;3.30;3.00;;;;;;;;;;5029208;28;20478;-76
2022/10/04 13:25:24;;;;;;;3.23;2.80;;;;;;;;;;5029872;28;20453;-75
2022/10/04 13:27:55;;;;;;;4.40;4.00;;;;;;;;;;5029548;28;20899;-76
2022/10/04 13:30:23;;;;;;;3.87;3.23;;;;;;;;;;5030015;28;20470;-76
2022/10/04 13:32:56;;;;;;;4.83;3.50;;;;;;;;;;5031094;28;20457;-75
2022/10/04 13:35:25;;;;;;;4.27;3.70;;;;;;;;;;5043472;28;20457;-76
2022/10/04 13:38:02;;;;;;;4.17;3.77;;;;;;;;;;5052968;28;20534;-76
2022/10/04 13:40:37;;;;;;;4.33;3.23;;;;;;;;;;5052735;28;20462;-77
2022/10/04 13:43:28;;;;;;;4.73;3.43;;;;;;;;;;5052849;28;20497;-77
2022/10/04 13:46:02;;;;;;;2.97;2.77;;;;;;;;;;5037342;28;20462;-76
2022/10/04 13:48:35;;;;;;;5.17;3.40;;;;;;;;;;5034845;28;20500;-77
2022/10/04 13:51:10;;;;;;;6.50;3.90;;;;;;;;;;5034285;28;20462;-76
2022/10/04 13:56:50;;;;;;;3.13;2.83;;;;;;;;;;5033508;28;20503;-76
2022/10/04 13:59:22;;;;;;;7.20;2.83;;;;;;;;;;5033437;28;20462;-76
2022/10/04 14:01:58;;;;;;;3.23;3.03;;;;;;;;;;5033217;28;20517;-76
2022/10/04 14:04:36;;;;;;;4.30;3.00;;;;;;;;;;5032454;28;20453;-76
2022/10/04 14:07:12;;;;;;;4.63;2.80;;;;;;;;;;5032927;28;20453;-77
2022/10/04 14:09:54;;;;;;;3.03;2.73;;;;;;;;;;5033642;28;20466;-76
2022/10/04 14:12:40;;;;;;;3.10;2.90;;;;;;;;;;5045236;28;20434;-76
2022/10/04 14:15:26;;;;;;;6.10;4.90;;;;;;;;;;5032450;28;20500;-76
2022/10/04 14:18:24;;;;;;;4.90;3.63;;;;;;;;;;5052973;28;20441;-77
2022/10/04 14:21:12;;;;;;;10.37;3.00;;;;;;;;;;5052824;28;20504;-77
2022/10/04 14:23:58;;;;;;;3.07;2.60;;;;;;;;;;5034622;28;20946;-75
2022/10/04 14:26:37;;;;;;;2.70;2.43;;;;;;;;;;5053049;28;20445;-76
2022/10/04 14:29:20;;;;;;;4.83;2.90;;;;;;;;;;5052722;28;20790;-76
2022/10/04 14:31:59;;;;;;;5.13;2.73;;;;;;;;;;5052923;28;20444;-76
2022/10/04 14:34:37;;;;;;;8.13;7.43;;;;;;;;;;5052009;28;20441;-77
2022/10/04 14:37:11;;;;;;;3.50;2.63;;;;;;;;;;5052915;28;20789;-76
2022/10/04 14:39:49;;;;;;;3.60;3.10;;;;;;;;;;5053093;28;20465;-75
2022/10/04 14:42:30;;;;;;;3.93;2.63;;;;;;;;;;5052469;28;20477;-76
2022/10/04 14:45:03;;;;;;;3.17;2.87;;;;;;;;;;5052562;28;20457;-76
2022/10/04 14:47:49;;;;;;;5.23;3.53;;;;;;;;;;5052792;28;20456;-77
2022/10/04 14:50:20;;;;;;;7.10;3.30;;;;;;;;;;5052319;28;20868;-76
2022/10/04 14:52:53;;;;;;;3.00;2.80;;;;;;;;;;5051632;28;20450;-76
2022/10/04 14:55:33;;;;;;;5.17;3.00;;;;;;;;;;5052423;28;20434;-76
2022/10/04 14:58:13;;;;;;;2.97;2.77;;;;;;;;;;5052541;28;20818;-76
2022/10/04 15:00:54;;;;;;;3.50;3.20;;;;;;;;;;5052472;28;20493;-77
2022/10/04 15:03:30;;;;;;;3.70;2.50;;;;;;;;;;5051398;28;20549;-77
2022/10/04 15:06:02;;;;;;;5.97;3.50;;;;;;;;;;5052175;28;20456;-77
2022/10/04 15:08:38;;;;;;;3.17;2.97;;;;;;;;;;5052199;28;20457;-75
2022/10/04 15:11:07;;;;;;;2.50;2.30;;;;;;;;;;5050265;28;20524;-76
2022/10/04 15:13:37;;;;;;;3.40;2.90;;;;;;;;;;5031557;28;20442;-78
2022/10/04 15:16:09;;;;;;;4.20;3.27;;;;;;;;;;5032213;28;20445;-76
2022/10/04 15:18:47;;;;;;;3.50;2.60;;;;;;;;;;5032282;28;20450;-76
2022/10/04 15:21:30;;;;;;;4.37;3.00;;;;;;;;;;5032204;28;20450;-75
2022/10/04 15:24:00;;;;;;;4.20;3.00;;;;;;;;;;5031987;28;20451;-76
2022/10/04 15:26:50;;;;;;;4.70;2.67;;;;;;;;;;5032325;28;20454;-76